createdAt,value
2019-05-18T00:02:00.417Z,81.94
2019-05-18T00:04:27.448Z,81.45
2019-05-18T00:06:54.828Z,81.21
2019-05-18T00:09:21.998Z,80.95
2019-05-18T00:11:49.146Z,80.85
2019-05-18T00:14:16.447Z,81.30
2019-05-18T00:16:43.473Z,80.65
2019-05-18T00:19:11.128Z,80.44
2019-05-18T00:21:38.443Z,81.50
2019-05-18T00:24:05.692Z,82.03
2019-05-18T00:26:33.127Z,82.41
2019-05-18T00:29:00.075Z,82.57
2019-05-18T00:31:29.477Z,82.72
2019-05-18T00:33:56.814Z,83.08
2019-05-18T00:36:24.460Z,83.22
2019-05-18T00:38:51.505Z,83.71
2019-05-18T00:41:18.719Z,83.49
2019-05-18T00:43:45.975Z,83.79
2019-05-18T00:46:13.079Z,83.16
2019-05-18T00:48:40.589Z,83.30
2019-05-18T00:51:07.784Z,83.44
2019-05-18T00:53:35.449Z,82.88
2019-05-18T00:56:02.911Z,82.79
2019-05-18T00:58:30.023Z,82.13
2019-05-18T01:00:58.602Z,82.02
2019-05-18T01:03:25.828Z,81.84
2019-05-18T01:05:53.583Z,81.50
2019-05-18T01:08:20.833Z,82.02
2019-05-18T01:10:48.606Z,81.22
2019-05-18T01:13:15.930Z,82.03
2019-05-18T01:15:43.727Z,82.57
2019-05-18T01:18:11.157Z,82.43
2019-05-18T01:20:38.694Z,82.21
2019-05-18T01:23:06.569Z,82.93
2019-05-18T01:25:33.800Z,83.24
2019-05-18T01:28:00.994Z,83.33
2019-05-18T01:30:28.535Z,83.47
2019-05-18T01:32:56.575Z,82.33
2019-05-18T01:35:23.863Z,82.46
2019-05-18T01:37:51.261Z,82.58
2019-05-18T01:40:19.605Z,82.14
2019-05-18T01:42:46.947Z,82.25
2019-05-18T01:45:17.474Z,82.58
2019-05-18T01:47:45.550Z,83.12
2019-05-18T01:50:14.016Z,83.02
2019-05-18T01:52:41.118Z,83.23
2019-05-18T01:55:09.001Z,83.30
2019-05-18T01:57:36.422Z,83.23
2019-05-18T02:00:05.062Z,83.39
2019-05-18T02:02:33.234Z,83.53
2019-05-18T02:05:05.748Z,83.55
2019-05-18T02:07:34.909Z,83.33
2019-05-18T02:10:04.012Z,83.13
2019-05-18T02:12:31.307Z,82.85
2019-05-18T02:14:58.548Z,82.65
2019-05-18T02:17:44.243Z,82.77
2019-05-18T02:20:12.079Z,82.92
2019-05-18T02:22:39.194Z,83.19
2019-05-18T02:25:06.644Z,83.77
2019-05-18T02:27:33.758Z,84.28
2019-05-18T02:30:01.881Z,84.36
2019-05-18T02:32:29.123Z,84.55
2019-05-18T02:34:56.477Z,83.68
2019-05-18T02:37:23.726Z,83.38
2019-05-18T02:39:54.061Z,83.31
2019-05-18T02:42:21.339Z,83.96
2019-05-18T02:44:48.665Z,84.55
2019-05-18T02:47:15.764Z,84.50
2019-05-18T02:49:42.845Z,84.70
2019-05-18T02:52:10.632Z,84.25
2019-05-18T02:54:40.382Z,84.03
2019-05-18T02:57:07.825Z,84.40
2019-05-18T02:59:35.246Z,84.18
2019-05-18T03:02:02.576Z,84.05
2019-05-18T03:04:29.819Z,83.52
2019-05-18T03:06:57.654Z,83.79
2019-05-18T03:09:24.904Z,83.54
2019-05-18T03:11:52.330Z,83.83
2019-05-18T03:14:19.925Z,83.62
2019-05-18T03:16:47.062Z,83.72
2019-05-18T03:19:14.476Z,83.56
2019-05-18T03:21:44.286Z,83.07
2019-05-18T03:24:11.633Z,82.88
2019-05-18T03:26:40.563Z,83.76
2019-05-18T03:29:07.792Z,83.87
2019-05-18T03:31:35.089Z,83.91
2019-05-18T03:34:02.343Z,84.22
2019-05-18T03:36:29.649Z,83.91
2019-05-18T03:38:56.660Z,83.62
2019-05-18T03:41:23.978Z,83.34
2019-05-18T03:43:51.114Z,83.50
2019-05-18T03:46:18.442Z,83.88
2019-05-18T03:48:45.968Z,84.21
2019-05-18T03:51:13.344Z,84.18
2019-05-18T03:53:40.616Z,84.04
2019-05-18T03:56:07.522Z,83.87
2019-05-18T03:58:34.512Z,83.86
2019-05-18T04:01:01.666Z,83.84
2019-05-18T04:03:29.747Z,84.07
2019-05-18T04:05:56.649Z,84.52
2019-05-18T04:08:24.975Z,84.72
2019-05-18T04:10:51.852Z,84.47
2019-05-18T04:13:19.241Z,84.87
2019-05-18T04:15:46.228Z,84.24
2019-05-18T04:18:13.128Z,84.86
2019-05-18T04:20:40.075Z,84.76
2019-05-18T04:23:07.352Z,84.65
2019-05-18T04:25:35.587Z,84.44
2019-05-18T04:28:02.795Z,84.11
2019-05-18T04:30:29.876Z,84.11
2019-05-18T04:32:56.981Z,83.74
2019-05-18T04:35:23.927Z,82.49
2019-05-18T04:37:50.834Z,82.45
2019-05-18T04:40:18.280Z,82.63
2019-05-18T04:42:45.383Z,82.83
2019-05-18T04:45:12.889Z,82.72
2019-05-18T04:47:40.170Z,82.19
2019-05-18T04:50:07.552Z,82.49
2019-05-18T04:52:34.527Z,82.36
2019-05-18T04:55:01.582Z,82.06
2019-05-18T04:57:28.597Z,82.06
2019-05-18T04:59:55.696Z,82.30
2019-05-18T05:02:23.444Z,82.08
2019-05-18T05:04:54.121Z,81.49
2019-05-18T05:07:19.768Z,81.99
2019-05-18T05:09:46.963Z,82.24
2019-05-18T05:12:14.056Z,83.44
2019-05-18T05:14:41.842Z,82.21
2019-05-18T05:17:09.127Z,81.33
2019-05-18T05:19:36.065Z,81.19
2019-05-18T05:22:03.509Z,81.85
2019-05-18T05:24:30.943Z,82.00
2019-05-18T05:26:58.156Z,81.98
2019-05-18T05:29:25.324Z,81.22
2019-05-18T05:31:52.167Z,81.02
2019-05-18T05:34:19.611Z,80.56
2019-05-18T05:36:46.724Z,80.35
2019-05-18T05:39:15.328Z,79.88
2019-05-18T05:41:42.533Z,78.52
2019-05-18T05:44:09.609Z,77.87
2019-05-18T05:46:37.432Z,77.16
2019-05-18T05:49:04.684Z,76.81
2019-05-18T05:51:31.803Z,76.50
2019-05-18T05:53:58.799Z,75.94
2019-05-18T05:56:26.096Z,75.57
2019-05-18T05:58:54.122Z,74.76
2019-05-18T06:01:21.474Z,74.57
2019-05-18T06:03:48.784Z,74.28
2019-05-18T06:06:15.841Z,74.68
2019-05-18T06:08:43.131Z,74.35
2019-05-18T06:11:10.170Z,74.87
2019-05-18T06:13:37.509Z,74.83
2019-05-18T06:16:04.625Z,75.09
2019-05-18T06:18:32.036Z,76.06
2019-05-18T06:20:59.282Z,77.28
2019-05-18T06:23:26.284Z,77.73
2019-05-18T06:25:53.493Z,76.62
2019-05-18T06:28:20.573Z,75.42
2019-05-18T06:30:47.853Z,73.78
2019-05-18T06:33:15.084Z,73.73
2019-05-18T06:35:42.134Z,73.11
2019-05-18T06:38:09.302Z,71.69
2019-05-18T06:40:36.299Z,70.19
2019-05-18T06:43:05.480Z,68.15
2019-05-18T06:45:32.699Z,68.90
2019-05-18T06:47:59.753Z,69.02
2019-05-18T06:50:29.178Z,68.79
2019-05-18T06:52:56.851Z,66.76
2019-05-18T06:55:25.367Z,65.34
2019-05-18T06:57:56.694Z,65.34
2019-05-18T07:00:23.861Z,63.72
2019-05-18T07:02:50.806Z,64.24
2019-05-18T07:05:18.007Z,63.97
2019-05-18T07:07:45.061Z,65.12
2019-05-18T07:10:15.579Z,62.78
2019-05-18T07:12:42.536Z,62.68
2019-05-18T07:15:11.738Z,61.21
2019-05-18T07:17:39.193Z,60.68
2019-05-18T07:20:06.991Z,61.14
2019-05-18T07:22:34.011Z,59.97
2019-05-18T07:25:01.573Z,59.18
2019-05-18T07:27:28.974Z,60.26
2019-05-18T07:29:56.031Z,59.26
2019-05-18T07:32:23.021Z,57.69
2019-05-18T07:34:50.376Z,57.38
2019-05-18T07:37:17.363Z,56.90
2019-05-18T07:39:44.428Z,57.46
2019-05-18T07:42:11.675Z,55.93
2019-05-18T07:44:38.601Z,55.50
2019-05-18T07:47:05.727Z,55.95
2019-05-18T07:49:32.779Z,55.60
2019-05-18T07:52:00.243Z,54.64
2019-05-18T07:54:27.228Z,54.10
2019-05-18T07:56:54.545Z,54.74
2019-05-18T07:59:21.635Z,53.63
2019-05-18T08:01:49.398Z,55.10
2019-05-18T08:04:16.653Z,53.63
2019-05-18T08:06:44.144Z,52.86
2019-05-18T08:09:11.426Z,53.87
2019-05-18T08:11:38.764Z,53.95
2019-05-18T08:14:05.886Z,53.73
2019-05-18T08:16:33.229Z,52.29
2019-05-18T08:19:00.527Z,51.75
2019-05-18T08:21:27.568Z,52.96
2019-05-18T08:23:54.842Z,51.41
2019-05-18T08:26:21.953Z,52.21
2019-05-18T08:28:48.835Z,51.14
2019-05-18T08:31:16.244Z,50.66
2019-05-18T08:33:43.444Z,50.16
2019-05-18T08:36:10.877Z,50.11
2019-05-18T08:38:37.887Z,51.30
2019-05-18T08:41:05.147Z,49.83
2019-05-18T08:43:32.265Z,49.15
2019-05-18T08:45:59.432Z,50.11
2019-05-18T08:48:26.733Z,49.87
2019-05-18T08:50:53.960Z,49.47
2019-05-18T08:53:21.244Z,49.47
2019-05-18T08:55:48.260Z,48.96
2019-05-18T08:58:15.280Z,49.20
2019-05-18T09:00:42.331Z,49.76
2019-05-18T09:03:09.342Z,50.10
2019-05-18T09:05:36.668Z,48.67
2019-05-18T09:08:03.690Z,49.25
2019-05-18T09:10:30.751Z,48.72
2019-05-18T09:12:57.886Z,48.49
2019-05-18T09:15:25.160Z,49.79
2019-05-18T09:17:52.141Z,48.29
2019-05-18T09:20:19.526Z,47.18
2019-05-18T09:22:46.614Z,47.65
2019-05-18T09:25:14.455Z,47.58
2019-05-18T09:27:41.821Z,46.54
2019-05-18T09:30:10.707Z,46.71
2019-05-18T09:32:38.152Z,48.00
2019-05-18T09:35:07.195Z,46.73
2019-05-18T09:37:34.128Z,48.33
2019-05-18T09:40:01.957Z,48.02
2019-05-18T09:42:29.419Z,48.81
2019-05-18T09:44:56.726Z,47.62
2019-05-18T09:47:23.760Z,47.15
2019-05-18T09:49:50.721Z,47.55
2019-05-18T09:52:18.180Z,47.24
2019-05-18T09:54:45.328Z,45.65
2019-05-18T09:57:12.476Z,47.25
2019-05-18T09:59:39.882Z,48.40
2019-05-18T10:02:07.028Z,47.48
2019-05-18T10:04:34.187Z,47.90
2019-05-18T10:07:01.211Z,46.10
2019-05-18T10:09:38.547Z,47.46
2019-05-18T10:11:57.584Z,46.84
2019-05-18T10:14:24.765Z,47.02
2019-05-18T10:16:51.677Z,46.98
2019-05-18T10:19:18.696Z,47.34
2019-05-18T10:21:45.996Z,45.16
2019-05-18T10:24:13.321Z,45.71
2019-05-18T10:26:40.556Z,45.42
2019-05-18T10:29:07.675Z,45.62
2019-05-18T10:31:34.672Z,44.80
2019-05-18T10:34:02.315Z,44.12
2019-05-18T10:36:29.490Z,45.61
2019-05-18T10:38:56.599Z,45.39
2019-05-18T10:41:23.657Z,44.69
2019-05-18T10:43:50.728Z,46.71
2019-05-18T10:46:18.092Z,45.85
2019-05-18T10:48:45.391Z,42.94
2019-05-18T10:51:12.591Z,41.46
2019-05-18T10:53:39.620Z,45.26
2019-05-18T10:56:06.744Z,46.08
2019-05-18T10:58:33.829Z,44.38
2019-05-18T11:01:01.025Z,44.59
2019-05-18T11:03:28.339Z,44.85
2019-05-18T11:05:55.427Z,45.16
2019-05-18T11:08:22.498Z,44.48
2019-05-18T11:10:49.391Z,45.26
2019-05-18T11:13:17.323Z,43.94
2019-05-18T11:15:44.629Z,45.74
2019-05-18T11:18:11.987Z,44.77
2019-05-18T11:20:39.120Z,44.74
2019-05-18T11:23:06.260Z,44.81
2019-05-18T11:25:33.236Z,43.92
2019-05-18T11:28:00.507Z,44.01
2019-05-18T11:30:27.662Z,44.29
2019-05-18T11:32:54.773Z,44.38
2019-05-18T11:35:22.047Z,45.14
2019-05-18T11:37:49.358Z,44.65
2019-05-18T11:40:17.593Z,44.06
2019-05-18T11:42:44.732Z,43.64
2019-05-18T11:45:15.204Z,44.63
2019-05-18T11:47:42.719Z,44.24
2019-05-18T11:50:10.728Z,45.94
2019-05-18T11:52:38.041Z,45.20
2019-05-18T11:55:06.260Z,45.04
2019-05-18T11:57:33.455Z,44.90
2019-05-18T12:00:01.044Z,44.48
2019-05-18T12:02:28.965Z,44.51
2019-05-18T12:04:56.228Z,45.96
2019-05-18T12:07:23.219Z,45.85
2019-05-18T12:09:50.459Z,43.76
2019-05-18T12:12:17.759Z,45.00
2019-05-18T12:14:45.176Z,44.92
2019-05-18T12:17:12.506Z,45.76
2019-05-18T12:19:39.623Z,44.72
2019-05-18T12:22:06.723Z,41.79
2019-05-18T12:24:33.884Z,42.93
2019-05-18T12:27:01.202Z,44.53
2019-05-18T12:29:28.207Z,43.80
2019-05-18T12:31:55.242Z,43.58
2019-05-18T12:34:22.238Z,43.79
2019-05-18T12:36:49.652Z,43.29
2019-05-18T12:39:16.899Z,44.56
2019-05-18T12:41:43.835Z,45.43
2019-05-18T12:44:10.968Z,45.92
2019-05-18T12:46:37.950Z,45.43
2019-05-18T12:49:05.057Z,45.10
2019-05-18T12:51:32.223Z,45.57
2019-05-18T12:53:59.699Z,45.03
2019-05-18T12:56:26.810Z,46.03
2019-05-18T12:58:54.019Z,46.71
2019-05-18T13:01:21.115Z,46.54
2019-05-18T13:03:48.147Z,46.82
2019-05-18T13:06:15.040Z,46.94
2019-05-18T13:08:42.709Z,47.57
2019-05-18T13:11:09.604Z,46.98
2019-05-18T13:13:37.000Z,48.33
2019-05-18T13:16:04.177Z,48.47
2019-05-18T13:18:31.213Z,47.91
2019-05-18T13:20:58.312Z,46.56
2019-05-18T13:23:25.614Z,47.71
2019-05-18T13:25:52.683Z,47.03
2019-05-18T13:28:19.779Z,47.30
2019-05-18T13:30:47.151Z,47.85
2019-05-18T13:33:14.156Z,47.43
2019-05-18T13:35:41.561Z,48.19
2019-05-18T13:38:08.715Z,48.03
2019-05-18T13:40:35.827Z,47.98
2019-05-18T13:43:03.036Z,47.63
2019-05-18T13:45:30.036Z,47.44
2019-05-18T13:47:57.313Z,47.44
2019-05-18T13:50:24.403Z,48.06
2019-05-18T13:52:51.959Z,48.37
2019-05-18T13:55:19.294Z,47.89
2019-05-18T13:57:46.720Z,47.48
2019-05-18T14:00:16.500Z,47.85
2019-05-18T14:02:43.828Z,48.04
2019-05-18T14:05:12.371Z,47.90
2019-05-18T14:07:39.741Z,48.03
2019-05-18T14:10:07.888Z,48.49
2019-05-18T14:12:35.157Z,48.27
2019-05-18T14:15:04.504Z,48.49
2019-05-18T14:17:32.055Z,48.73
2019-05-18T14:19:59.102Z,48.85
2019-05-18T14:22:26.310Z,49.05
2019-05-18T14:24:53.219Z,49.55
2019-05-18T14:27:20.484Z,48.95
2019-05-18T14:29:47.505Z,50.22
2019-05-18T14:32:14.609Z,50.53
2019-05-18T14:34:41.556Z,51.67
2019-05-18T14:37:08.507Z,51.82
2019-05-18T14:39:37.172Z,55.67
2019-05-18T14:42:04.285Z,58.39
2019-05-18T14:44:31.590Z,67.80
2019-05-18T14:46:58.717Z,62.40
2019-05-18T14:49:26.118Z,63.75
2019-05-18T14:51:53.087Z,59.20
2019-05-18T14:54:24.917Z,59.67
2019-05-18T14:56:49.784Z,65.16
2019-05-18T14:59:16.967Z,66.35
2019-05-18T15:01:44.220Z,66.74
2019-05-18T15:04:11.551Z,69.14
2019-05-18T15:06:38.674Z,71.18
2019-05-18T15:09:05.901Z,70.69
2019-05-18T15:11:33.062Z,73.23
2019-05-18T15:14:00.494Z,75.04
2019-05-18T15:16:28.626Z,74.84
2019-05-18T15:18:55.848Z,76.30
2019-05-18T15:21:23.330Z,77.54
2019-05-18T15:23:50.386Z,76.63
2019-05-18T15:26:17.825Z,77.85
2019-05-18T15:28:44.822Z,77.33
2019-05-18T15:31:11.775Z,77.69
2019-05-18T15:33:39.177Z,77.50
2019-05-18T15:36:06.557Z,77.36
2019-05-18T15:38:33.543Z,77.65
2019-05-18T15:41:00.794Z,77.33
2019-05-18T15:43:27.802Z,76.42
2019-05-18T15:45:55.020Z,76.77
2019-05-18T15:48:22.132Z,76.34
2019-05-18T15:50:49.591Z,76.55
2019-05-18T15:53:17.097Z,77.10
2019-05-18T15:55:44.390Z,76.79
2019-05-18T15:58:11.424Z,76.27
2019-05-18T16:00:38.625Z,77.56
2019-05-18T16:03:06.048Z,76.76
2019-05-18T16:05:33.347Z,76.02
2019-05-18T16:08:00.683Z,76.24
2019-05-18T16:10:27.596Z,76.87
2019-05-18T16:12:54.735Z,76.98
2019-05-18T16:15:22.091Z,76.56
2019-05-18T16:17:49.244Z,77.39
2019-05-18T16:20:16.870Z,77.49
2019-05-18T16:22:44.569Z,77.58
2019-05-18T16:25:12.168Z,77.33
2019-05-18T16:27:39.158Z,76.75
2019-05-18T16:30:07.795Z,77.26
2019-05-18T16:32:35.393Z,76.94
2019-05-18T16:35:07.574Z,76.54
2019-05-18T16:37:34.861Z,76.80
2019-05-18T16:40:02.807Z,77.51
2019-05-18T16:42:29.934Z,77.70
2019-05-18T16:44:57.010Z,77.35
2019-05-18T16:47:24.033Z,77.54
2019-05-18T16:49:51.370Z,76.89
2019-05-18T16:52:18.672Z,76.47
2019-05-18T16:54:46.897Z,75.56
2019-05-18T16:57:15.007Z,75.71
2019-05-18T16:59:42.111Z,76.77
2019-05-18T17:02:09.441Z,76.67
2019-05-18T17:04:36.487Z,77.23
2019-05-18T17:07:04.092Z,76.84
2019-05-18T17:09:32.052Z,77.62
2019-05-18T17:11:58.940Z,77.52
2019-05-18T17:14:26.107Z,78.08
2019-05-18T17:16:53.067Z,77.72
2019-05-18T17:19:20.217Z,77.65
2019-05-18T17:21:47.424Z,77.89
2019-05-18T17:24:14.753Z,79.13
2019-05-18T17:26:52.277Z,79.18
2019-05-18T17:29:11.054Z,80.42
2019-05-18T17:31:38.070Z,80.83
2019-05-18T17:34:05.308Z,81.24
2019-05-18T17:36:32.420Z,81.65
2019-05-18T17:38:59.716Z,81.90
2019-05-18T17:41:26.878Z,82.46
2019-05-18T17:43:54.172Z,82.77
2019-05-18T17:46:21.396Z,81.87
2019-05-18T17:48:48.515Z,82.43
2019-05-18T17:51:15.767Z,82.34
2019-05-18T17:53:42.913Z,82.54
2019-05-18T17:56:09.914Z,82.64
2019-05-18T17:58:36.839Z,83.39
2019-05-18T18:01:03.906Z,82.33
2019-05-18T18:03:31.249Z,82.32
2019-05-18T18:05:58.379Z,84.09
2019-05-18T18:08:25.435Z,81.02
2019-05-18T18:10:52.445Z,80.97
2019-05-18T18:13:19.663Z,81.25
2019-05-18T18:15:46.667Z,81.09
2019-05-18T18:18:14.294Z,81.38
2019-05-18T18:20:41.289Z,82.44
2019-05-18T18:23:08.799Z,83.47
2019-05-18T18:25:35.668Z,83.35
2019-05-18T18:28:03.277Z,83.37
2019-05-18T18:30:30.487Z,82.80
2019-05-18T18:32:58.439Z,83.16
2019-05-18T18:35:25.485Z,83.19
2019-05-18T18:37:52.327Z,83.27
2019-05-18T18:40:19.791Z,83.34
2019-05-18T18:42:46.816Z,83.33
2019-05-18T18:45:15.041Z,83.64
2019-05-18T18:47:42.248Z,83.97
2019-05-18T18:50:09.996Z,84.45
2019-05-18T18:52:37.263Z,84.11
2019-05-18T18:55:06.944Z,83.58
2019-05-18T18:57:41.081Z,83.48
2019-05-18T19:00:05.927Z,83.95
2019-05-18T19:02:33.042Z,84.44
2019-05-18T19:05:00.198Z,84.50
2019-05-18T19:07:27.158Z,84.40
2019-05-18T19:09:54.214Z,84.82
2019-05-18T19:12:21.263Z,85.08
2019-05-18T19:14:48.669Z,85.09
2019-05-18T19:17:16.227Z,84.35
2019-05-18T19:19:43.338Z,83.61
2019-05-18T19:22:10.360Z,83.52
2019-05-18T19:24:37.525Z,83.92
2019-05-18T19:27:04.612Z,84.47
2019-05-18T19:29:32.536Z,84.44
2019-05-18T19:31:59.859Z,84.07
2019-05-18T19:34:26.895Z,84.28
2019-05-18T19:36:54.555Z,84.94
2019-05-18T19:39:23.074Z,84.94
2019-05-18T19:41:50.385Z,84.33
2019-05-18T19:44:17.382Z,83.98
2019-05-18T19:46:44.329Z,84.02
2019-05-18T19:49:11.469Z,85.46
2019-05-18T19:51:38.666Z,84.86
2019-05-18T19:54:05.816Z,85.04
2019-05-18T19:56:39.719Z,85.55
2019-05-18T19:59:02.396Z,85.67
2019-05-18T20:01:30.055Z,85.57
2019-05-18T20:03:57.523Z,85.66
2019-05-18T20:06:24.827Z,85.81
2019-05-18T20:08:52.097Z,86.26
2019-05-18T20:11:19.230Z,85.94
2019-05-18T20:13:46.290Z,86.05
2019-05-18T20:16:13.212Z,86.06
2019-05-18T20:18:40.505Z,85.66
2019-05-18T20:21:07.553Z,85.64
2019-05-18T20:23:34.482Z,85.81
2019-05-18T20:26:01.598Z,85.88
2019-05-18T20:28:28.561Z,85.60
2019-05-18T20:30:55.737Z,86.27
2019-05-18T20:33:23.104Z,85.71
2019-05-18T20:35:50.600Z,85.89
2019-05-18T20:38:17.684Z,86.07
2019-05-18T20:40:44.863Z,86.13
2019-05-18T20:43:12.290Z,86.22
2019-05-18T20:45:39.343Z,86.23
2019-05-18T20:48:06.614Z,86.40
2019-05-18T20:50:33.749Z,86.68
2019-05-18T20:53:00.668Z,86.04
2019-05-18T20:55:28.061Z,85.89
2019-05-18T20:57:57.189Z,85.73
2019-05-18T21:00:24.202Z,85.88
2019-05-18T21:02:51.197Z,86.10
2019-05-18T21:05:18.450Z,85.79
2019-05-18T21:07:45.483Z,86.23
2019-05-18T21:10:12.906Z,86.52
2019-05-18T21:12:39.931Z,86.37
2019-05-18T21:15:08.712Z,86.12
2019-05-18T21:17:35.997Z,86.09
2019-05-18T21:20:04.821Z,86.18
2019-05-18T21:22:31.767Z,86.10
2019-05-18T21:24:59.079Z,85.87
2019-05-18T21:27:25.988Z,85.92
2019-05-18T21:29:53.246Z,86.16
2019-05-18T21:32:20.332Z,86.01
2019-05-18T21:34:47.257Z,86.18
2019-05-18T21:37:14.321Z,86.18
2019-05-18T21:39:41.480Z,86.13
2019-05-18T21:42:08.558Z,86.42
2019-05-18T21:44:35.787Z,86.56
2019-05-18T21:47:03.008Z,86.54
2019-05-18T21:49:30.284Z,86.70
2019-05-18T21:51:57.362Z,86.78
2019-05-18T21:54:24.420Z,86.59
2019-05-18T21:56:51.351Z,86.71
2019-05-18T21:59:18.300Z,86.63
2019-05-18T22:01:45.199Z,86.73
2019-05-18T22:04:12.251Z,87.01
2019-05-18T22:06:39.948Z,87.21
2019-05-18T22:09:07.183Z,87.35
2019-05-18T22:11:34.591Z,87.59
2019-05-18T22:14:03.564Z,87.66
2019-05-18T22:16:30.742Z,87.85
2019-05-18T22:18:57.733Z,88.06
2019-05-18T22:21:24.947Z,87.68
2019-05-18T22:23:52.440Z,87.59
2019-05-18T22:26:19.868Z,87.21
2019-05-18T22:28:47.210Z,87.18
2019-05-18T22:31:14.764Z,87.33
2019-05-18T22:33:42.277Z,87.11
2019-05-18T22:36:09.793Z,86.95
2019-05-18T22:38:36.822Z,86.85
2019-05-18T22:41:03.944Z,86.85
2019-05-18T22:43:30.887Z,86.62
2019-05-18T22:45:58.044Z,86.61
2019-05-18T22:48:39.997Z,86.90
2019-05-18T22:50:54.523Z,86.82
2019-05-18T22:53:21.919Z,86.95
2019-05-18T22:55:48.879Z,87.10
2019-05-18T22:58:15.830Z,87.11
2019-05-18T23:00:43.057Z,87.32
2019-05-18T23:03:10.131Z,86.92
2019-05-18T23:05:37.752Z,86.69
2019-05-18T23:08:04.952Z,86.80
2019-05-18T23:10:32.032Z,86.80
2019-05-18T23:12:59.184Z,86.62
2019-05-18T23:15:26.459Z,86.82
2019-05-18T23:17:53.464Z,87.11
2019-05-18T23:20:20.787Z,87.20
2019-05-18T23:22:47.857Z,87.43
2019-05-18T23:25:15.070Z,87.45
2019-05-18T23:27:42.248Z,87.66
2019-05-18T23:30:10.008Z,87.52
2019-05-18T23:32:38.725Z,87.72
2019-05-18T23:35:06.160Z,87.80
2019-05-18T23:37:33.307Z,87.86
2019-05-18T23:40:00.608Z,88.04
2019-05-18T23:42:27.774Z,87.78
2019-05-18T23:44:54.840Z,87.93
2019-05-18T23:47:22.977Z,88.29
2019-05-18T23:49:50.075Z,87.89
2019-05-18T23:52:17.768Z,88.32
2019-05-18T23:54:45.243Z,88.36
2019-05-18T23:57:12.277Z,88.19
2019-05-18T23:59:39.547Z,88.25
